createdAt,value
2023-04-01T00:01:22.290Z,5.78
2023-04-01T00:03:51.856Z,5.74
2023-04-01T00:06:20.557Z,5.71
2023-04-01T00:08:48.836Z,5.64
2023-04-01T00:11:20.607Z,5.61
2023-04-01T00:13:49.333Z,5.62
2023-04-01T00:16:22.184Z,5.60
2023-04-01T00:18:51.879Z,5.59
2023-04-01T00:21:21.521Z,5.63
2023-04-01T00:23:51.718Z,5.64
2023-04-01T00:26:22.154Z,5.63
2023-04-01T00:28:51.249Z,5.58
2023-04-01T00:31:19.505Z,5.52
2023-04-01T00:33:47.842Z,5.45
2023-04-01T00:36:18.260Z,5.43
2023-04-01T00:38:48.051Z,5.46
2023-04-01T00:41:18.163Z,5.47
2023-04-01T00:43:50.563Z,5.45
2023-04-01T00:46:19.474Z,5.44
2023-04-01T00:48:53.382Z,5.42
2023-04-01T00:51:23.201Z,5.42
2023-04-01T00:53:52.718Z,5.41
2023-04-01T00:56:27.988Z,5.41
2023-04-01T00:59:00.046Z,5.44
2023-04-01T01:01:28.585Z,5.46
2023-04-01T01:03:57.824Z,5.50
2023-04-01T01:06:40.166Z,5.47
2023-04-01T01:09:25.861Z,5.45
2023-04-01T01:12:14.792Z,5.45
2023-04-01T01:15:19.124Z,5.40
2023-04-01T01:18:03.090Z,5.38
2023-04-01T01:20:40.746Z,5.34
2023-04-01T01:23:15.503Z,5.33
2023-04-01T01:25:56.891Z,5.36
2023-04-01T01:28:43.597Z,5.35
2023-04-01T01:31:49.552Z,5.31
2023-04-01T01:34:37.289Z,5.32
2023-04-01T01:37:12.141Z,5.27
2023-04-01T01:39:40.433Z,5.22
2023-04-01T01:42:10.500Z,5.21
2023-04-01T01:44:38.733Z,5.18
2023-04-01T01:47:07.120Z,5.23
2023-04-01T01:49:35.600Z,5.24
2023-04-01T01:52:04.811Z,5.17
2023-04-01T01:54:33.084Z,5.16
2023-04-01T01:57:07.981Z,5.11
2023-04-01T01:59:38.724Z,5.11
2023-04-01T02:02:09.218Z,5.14
2023-04-01T02:04:40.679Z,5.14
2023-04-01T02:07:21.504Z,5.16
2023-04-01T02:09:49.885Z,5.15
2023-04-01T02:12:18.503Z,5.15
2023-04-01T02:14:59.244Z,5.18
2023-04-01T02:17:28.944Z,5.23
2023-04-01T02:20:05.692Z,5.26
2023-04-01T02:22:38.739Z,5.30
2023-04-01T02:25:18.470Z,5.32
2023-04-01T02:27:50.857Z,5.27
2023-04-01T02:30:19.720Z,5.23
2023-04-01T02:32:49.901Z,5.23
2023-04-01T02:35:18.371Z,5.24
2023-04-01T02:37:48.046Z,5.27
2023-04-01T02:40:21.545Z,5.36
2023-04-01T02:42:51.977Z,5.42
2023-04-01T02:54:14.243Z,5.30
2023-04-01T02:56:42.931Z,5.12
2023-04-01T02:59:13.288Z,4.92
2023-04-01T03:01:42.024Z,4.74
2023-04-01T03:04:10.639Z,4.61
2023-04-01T03:06:40.152Z,4.49
2023-04-01T03:09:08.410Z,4.44
2023-04-01T03:11:36.711Z,4.41
2023-04-01T03:14:06.236Z,4.37
2023-04-01T03:16:34.638Z,4.31
2023-04-01T03:19:03.427Z,4.28
2023-04-01T03:21:32.678Z,4.29
2023-04-01T03:24:01.086Z,4.30
2023-04-01T03:26:36.722Z,4.23
2023-04-01T03:29:05.844Z,4.13
2023-04-01T03:31:34.230Z,4.06
2023-04-01T03:34:02.893Z,4.04
2023-04-01T03:36:31.442Z,4.01
2023-04-01T03:39:04.864Z,3.96
2023-04-01T03:41:38.766Z,3.89
2023-04-01T03:44:07.431Z,3.90
2023-04-01T03:46:36.894Z,3.87
2023-04-01T03:49:12.560Z,3.91
2023-04-01T03:51:45.527Z,3.95
2023-04-01T03:54:14.626Z,3.97
2023-04-01T03:56:43.229Z,3.96
2023-04-01T03:59:12.720Z,3.92
2023-04-01T04:01:41.306Z,3.91
2023-04-01T04:04:14.266Z,3.89
2023-04-01T04:06:46.160Z,3.89
2023-04-01T04:09:14.854Z,3.91
2023-04-01T04:11:43.129Z,3.93
2023-04-01T04:14:12.446Z,3.96
2023-04-01T04:16:41.128Z,3.98
2023-04-01T04:19:09.775Z,3.96
2023-04-01T04:21:38.916Z,3.92
2023-04-01T04:24:07.403Z,3.91
2023-04-01T04:26:55.860Z,3.93
2023-04-01T04:29:24.757Z,3.96
2023-04-01T04:31:53.290Z,3.97
2023-04-01T04:34:23.662Z,3.97
2023-04-01T04:36:52.041Z,3.99
2023-04-01T04:39:20.841Z,4.01
2023-04-01T04:41:49.520Z,4.04
2023-04-01T04:44:17.796Z,4.10
2023-04-01T04:46:46.364Z,4.10
2023-04-01T04:49:16.109Z,4.11
2023-04-01T04:51:45.134Z,4.09
2023-04-01T04:54:13.664Z,4.10
2023-04-01T04:56:59.108Z,4.12
2023-04-01T04:59:28.357Z,4.10
2023-04-01T05:02:32.190Z,4.17
2023-04-01T05:05:00.647Z,4.21
2023-04-01T05:07:29.326Z,4.19
2023-04-01T05:09:58.198Z,4.22
2023-04-01T05:12:26.815Z,4.19
2023-04-01T05:14:58.359Z,4.18
2023-04-01T05:17:26.915Z,4.15
2023-04-01T05:19:56.153Z,4.12
2023-04-01T05:22:24.803Z,4.16
2023-04-01T05:24:55.435Z,4.26
2023-04-01T05:27:24.422Z,4.37
2023-04-01T05:29:54.697Z,4.40
2023-04-01T05:33:04.781Z,4.48
2023-04-01T05:35:33.714Z,4.49
2023-04-01T05:38:04.111Z,4.51
2023-04-01T05:40:33.364Z,4.51
2023-04-01T05:43:01.861Z,4.48
2023-04-01T05:45:30.477Z,4.43
2023-04-01T05:48:14.607Z,4.41
2023-04-01T05:50:44.959Z,4.44
2023-04-01T05:53:14.213Z,4.49
2023-04-01T05:55:44.350Z,4.52
2023-04-01T05:58:13.021Z,4.53
2023-04-01T06:00:42.426Z,4.61
2023-04-01T06:03:30.803Z,4.64
2023-04-01T06:05:59.119Z,4.72
2023-04-01T06:08:34.696Z,4.77
2023-04-01T06:11:11.366Z,4.83
2023-04-01T06:13:48.959Z,4.87
2023-04-01T06:16:33.103Z,4.85
2023-04-01T06:19:34.749Z,4.83
2023-04-01T06:22:10.404Z,4.89
2023-04-01T06:25:00.775Z,4.91
2023-04-01T06:27:41.546Z,4.97
2023-04-01T06:30:36.228Z,4.99
2023-04-01T06:33:31.455Z,4.92
2023-04-01T06:36:06.103Z,4.88
2023-04-01T06:38:48.172Z,4.85
2023-04-01T06:41:39.758Z,4.88
2023-04-01T06:44:27.378Z,4.89
2023-04-01T06:47:20.219Z,4.95
2023-04-01T06:50:27.174Z,4.93
2023-04-01T06:53:26.472Z,4.94
2023-04-01T06:56:09.649Z,4.91
2023-04-01T06:59:06.403Z,4.92
2023-04-01T07:01:49.384Z,4.91
2023-04-01T07:04:24.167Z,4.96
2023-04-01T07:06:57.185Z,5.00
2023-04-01T07:09:38.302Z,5.11
2023-04-01T07:12:37.408Z,5.13
2023-04-01T07:15:31.808Z,5.14
2023-04-01T07:18:08.317Z,5.17
2023-04-01T07:20:37.735Z,5.21
2023-04-01T07:23:08.479Z,5.17
2023-04-01T07:26:21.958Z,5.23
2023-04-01T07:29:14.081Z,5.26
2023-04-01T07:32:04.555Z,5.32
2023-04-01T07:34:51.932Z,5.36
2023-04-01T07:37:30.756Z,5.37
2023-04-01T07:40:12.239Z,5.37
2023-04-01T07:43:20.359Z,5.32
2023-04-01T07:46:05.584Z,5.35
2023-04-01T07:49:04.957Z,5.41
2023-04-01T07:51:37.506Z,5.47
2023-04-01T07:54:41.458Z,5.55
2023-04-01T07:57:32.092Z,5.55
2023-04-01T08:00:08.428Z,5.54
2023-04-01T08:02:46.188Z,5.58
2023-04-01T08:05:17.360Z,5.61
2023-04-01T08:07:57.716Z,5.64
2023-04-01T08:10:59.046Z,5.63
2023-04-01T08:14:07.852Z,5.64
2023-04-01T08:17:02.849Z,5.66
2023-04-01T08:20:16.952Z,5.72
2023-04-01T08:22:48.969Z,5.82
2023-04-01T08:25:25.765Z,5.79
2023-04-01T08:28:22.454Z,5.81
2023-04-01T08:30:56.477Z,5.87
2023-04-01T08:33:29.713Z,5.90
2023-04-01T08:36:19.039Z,5.94
2023-04-01T08:39:01.018Z,6.02
2023-04-01T08:41:48.212Z,6.02
2023-04-01T08:45:01.233Z,6.01
2023-04-01T08:47:47.981Z,5.99
2023-04-01T08:50:53.846Z,5.94
2023-04-01T08:54:00.201Z,5.94
2023-04-01T08:56:44.102Z,6.01
2023-04-01T08:59:28.786Z,6.00
